Time;durP1;ratioP1;P1;durP2;ratioP2;P2;SDS_P1;SDS_P2;PMS_P1;PMS_P2;Temp;Humidity;BMP_temperature;BMP_pressure;BME280_temperature;BME280_humidity;BME280_pressure;Samples;Min_cycle;Max_cycle;Signal;HPM_P1;HPM_P2
2022/04/02 00:00:46;;;;;;;24.77;22.05;;;;;;;-1.02;100.00;95467.25;5071442;28;20391;-67
2022/04/02 00:03:12;;;;;;;27.63;23.07;;;;;;;-0.95;100.00;95457.81;5071534;28;20415;-67
2022/04/02 00:05:37;;;;;;;26.77;23.33;;;;;;;-0.82;100.00;95460.44;5071056;28;20471;-67
2022/04/02 00:08:03;;;;;;;26.63;23.40;;;;;;;-0.83;100.00;95466.56;5053023;28;20407;-67
2022/04/02 00:10:29;;;;;;;27.08;23.15;;;;;;;-0.85;100.00;95468.56;5070133;28;20402;-67
2022/04/02 00:12:55;;;;;;;27.17;23.05;;;;;;;-0.84;100.00;95460.63;5070397;28;20391;-67
2022/04/02 00:15:21;;;;;;;28.60;23.25;;;;;;;-0.80;100.00;95462.84;5071478;28;20399;-67
2022/04/02 00:17:47;;;;;;;25.58;22.13;;;;;;;-0.71;100.00;95465.06;5070689;28;20403;-67
2022/04/02 00:20:12;;;;;;;25.10;22.20;;;;;;;-0.76;100.00;95466.63;5071229;28;20395;-68
2022/04/02 00:22:37;;;;;;;25.83;22.30;;;;;;;-0.72;100.00;95466.03;5071252;28;20388;-68
2022/04/02 00:25:03;;;;;;;25.30;22.33;;;;;;;-0.89;100.00;95472.47;5071672;28;20398;-67
2022/04/02 00:27:29;;;;;;;27.45;23.50;;;;;;;-0.91;100.00;95469.31;5071351;28;20807;-67
2022/04/02 00:29:54;;;;;;;27.77;24.00;;;;;;;-0.99;100.00;95472.00;5071530;28;20820;-67
2022/04/02 00:32:19;;;;;;;26.53;22.87;;;;;;;-0.94;100.00;95469.66;5073027;28;20470;-67
2022/04/02 00:34:47;;;;;;;26.80;23.05;;;;;;;-0.83;100.00;95469.13;5075491;28;20424;-67
2022/04/02 00:37:12;;;;;;;24.40;21.75;;;;;;;-0.59;100.00;95473.84;5074662;28;20466;-68
2022/04/02 00:39:37;;;;;;;26.33;22.80;;;;;;;-0.44;100.00;95466.00;5074856;28;20394;-66
2022/04/02 00:42:03;;;;;;;25.47;22.77;;;;;;;-0.43;100.00;95468.38;5074904;28;20390;-67
2022/04/02 00:44:28;;;;;;;24.92;22.23;;;;;;;-0.47;100.00;95466.38;5073992;28;20846;-65
2022/04/02 00:46:54;;;;;;;25.42;21.90;;;;;;;-0.44;100.00;95459.06;5075153;28;20399;-65
2022/04/02 00:49:20;;;;;;;24.05;20.58;;;;;;;-0.45;100.00;95467.78;5075228;28;20391;-66
2022/04/02 00:51:45;;;;;;;25.60;21.13;;;;;;;-0.51;100.00;95467.75;5074510;28;20471;-66
2022/04/02 00:54:17;;;;;;;23.58;21.08;;;;;;;-0.42;100.00;95467.41;5074859;28;20399;-66
2022/04/02 00:56:43;;;;;;;26.02;21.15;;;;;;;-0.25;100.00;95459.34;5074883;28;20400;-64
2022/04/02 00:59:10;;;;;;;22.50;20.08;;;;;;;-0.39;100.00;95461.06;5057159;28;20392;-66
2022/04/02 01:01:37;;;;;;;22.38;19.98;;;;;;;-0.53;100.00;95472.28;5074655;28;20888;-66
2022/04/02 01:04:03;;;;;;;22.35;19.95;;;;;;;-0.42;100.00;95461.47;5074594;28;20486;-66
2022/04/02 01:06:30;;;;;;;22.23;19.70;;;;;;;-0.43;100.00;95470.16;5074980;28;20431;-66
2022/04/02 01:08:56;;;;;;;21.88;19.35;;;;;;;-0.67;100.00;95463.69;5074719;28;20578;-68
2022/04/02 01:11:22;;;;;;;22.25;19.33;;;;;;;-0.82;100.00;95464.78;5038214;28;20860;-65
2022/04/02 01:13:48;;;;;;;22.45;20.05;;;;;;;-0.85;100.00;95466.78;5074774;28;20421;-66
2022/04/02 01:16:13;;;;;;;25.63;21.48;;;;;;;-0.79;100.00;95472.16;5074103;28;20398;-65
2022/04/02 01:18:39;;;;;;;23.90;21.27;;;;;;;-0.81;100.00;95464.63;5074326;28;20440;-66
2022/04/02 01:21:04;;;;;;;24.43;21.83;;;;;;;-0.69;100.00;95468.25;5074503;28;20775;-66
2022/04/02 01:23:30;;;;;;;25.03;22.27;;;;;;;-0.73;100.00;95463.69;5073746;28;20407;-67
2022/04/02 01:25:59;;;;;;;25.63;22.13;;;;;;;-0.84;100.00;95475.28;5073339;28;20415;-66
2022/04/02 01:28:33;;;;;;;24.58;21.48;;;;;;;-0.78;100.00;95473.75;5075242;28;20408;-66
2022/04/02 01:31:07;;;;;;;24.93;22.07;;;;;;;-0.77;100.00;95477.88;5056314;28;20400;-66
2022/04/02 01:33:36;;;;;;;24.60;21.83;;;;;;;-0.71;100.00;95479.69;5073861;28;20394;-67
2022/04/02 01:36:04;;;;;;;25.90;21.15;;;;;;;-0.81;100.00;95481.81;5073779;28;20395;-66
2022/04/02 01:38:30;;;;;;;26.45;22.38;;;;;;;-0.84;100.00;95480.44;5056301;28;20399;-66
2022/04/02 01:40:56;;;;;;;27.07;22.17;;;;;;;-0.77;100.00;95481.25;5074124;28;20736;-67
2022/04/02 01:43:23;;;;;;;26.23;21.75;;;;;;;-0.71;100.00;95488.22;5072008;28;20792;-66
2022/04/02 01:45:53;;;;;;;25.17;22.23;;;;;;;-0.71;100.00;95477.13;5074034;28;20437;-66
2022/04/02 01:48:19;;;;;;;24.73;21.63;;;;;;;-0.70;100.00;95476.94;5074104;28;20486;-66
2022/04/02 01:50:45;;;;;;;25.13;22.10;;;;;;;-0.77;100.00;95481.25;5073686;28;20384;-67
2022/04/02 01:53:11;;;;;;;24.92;21.45;;;;;;;-0.70;100.00;95483.88;5073530;28;20733;-68
2022/04/02 01:55:36;;;;;;;24.13;21.53;;;;;;;-0.70;100.00;95479.53;5073616;28;20843;-66
2022/04/02 01:58:01;;;;;;;24.05;20.67;;;;;;;-0.77;100.00;95483.03;5073766;28;20395;-67
2022/04/02 02:00:27;;;;;;;23.80;21.20;;;;;;;-0.76;100.00;95479.47;5074156;28;20860;-66
2022/04/02 02:02:52;;;;;;;23.10;20.17;;;;;;;-0.81;100.00;95482.63;5073523;28;20450;-67
2022/04/02 02:05:18;;;;;;;25.83;20.90;;;;;;;-0.89;100.00;95483.53;5074028;28;20388;-66
2022/04/02 02:07:50;;;;;;;22.80;20.33;;;;;;;-0.94;100.00;95491.03;5073118;28;20899;-67
2022/04/02 02:10:16;;;;;;;24.50;20.77;;;;;;;-0.81;100.00;95482.63;5072097;28;20755;-66
2022/04/02 02:12:42;;;;;;;24.67;21.07;;;;;;;-0.79;100.00;95487.59;5074048;28;20396;-66
2022/04/02 02:15:08;;;;;;;25.25;20.98;;;;;;;-0.97;100.00;95501.69;5073532;28;20710;-67
2022/04/02 02:17:33;;;;;;;24.98;20.33;;;;;;;-0.95;100.00;95492.00;5055736;28;20479;-66
2022/04/02 02:19:59;;;;;;;23.07;20.57;;;;;;;-0.79;100.00;95485.81;5072982;28;20461;-66
2022/04/02 02:22:24;;;;;;;23.27;20.15;;;;;;;-0.83;100.00;95492.28;5073093;28;20376;-67
2022/04/02 02:24:49;;;;;;;24.37;21.10;;;;;;;-0.92;100.00;95501.94;5073902;28;20399;-66
2022/04/02 02:27:15;;;;;;;24.53;20.50;;;;;;;-0.91;100.00;95507.88;5072935;28;20916;-66
2022/04/02 02:29:40;;;;;;;22.85;20.40;;;;;;;-0.79;100.00;95503.81;5073125;28;20404;-66
2022/04/02 02:32:06;;;;;;;25.53;21.20;;;;;;;-0.72;100.00;95507.19;5073275;28;20467;-67
2022/04/02 02:37:16;;;;;;;21.58;18.85;;;;;;;-0.82;100.00;95508.50;5073165;28;20429;-66
2022/04/02 02:39:42;;;;;;;20.75;18.40;;;;;;;-0.80;100.00;95512.50;5072764;28;20391;-67
2022/04/02 02:42:08;;;;;;;19.93;17.63;;;;;;;-0.87;100.00;95511.66;5072767;28;20935;-66
2022/04/02 02:44:33;;;;;;;19.90;17.80;;;;;;;-0.76;100.00;95508.56;5072012;28;20435;-67
2022/04/02 02:46:58;;;;;;;19.23;17.17;;;;;;;-0.59;100.00;95516.78;5054880;28;20402;-67
2022/04/02 02:49:24;;;;;;;22.03;17.77;;;;;;;-0.56;100.00;95508.72;5072719;28;20832;-67
2022/04/02 02:51:49;;;;;;;20.92;17.40;;;;;;;-0.62;100.00;95512.03;5072823;28;20449;-67
2022/04/02 02:54:15;;;;;;;20.58;18.17;;;;;;;-0.56;100.00;95514.63;5072331;28;20395;-67
2022/04/02 02:56:40;;;;;;;20.00;17.50;;;;;;;-0.62;100.00;95515.41;5072420;28;20403;-68
2022/04/02 02:59:05;;;;;;;18.37;16.40;;;;;;;-0.74;100.00;95505.81;5072638;28;20430;-66
2022/04/02 03:01:32;;;;;;;18.52;16.52;;;;;;;-0.70;100.00;95517.31;5072786;28;20392;-67
2022/04/02 03:03:57;;;;;;;18.65;16.65;;;;;;;-0.72;100.00;95517.50;5071984;28;20403;-67
2022/04/02 03:06:22;;;;;;;18.90;16.90;;;;;;;-0.72;100.00;95511.53;5072274;28;20424;-67
2022/04/02 03:08:48;;;;;;;19.10;16.88;;;;;;;-0.66;100.00;95514.16;5072367;28;20388;-67
2022/04/02 03:11:13;;;;;;;18.87;16.83;;;;;;;-0.72;100.00;95526.97;5071555;28;20384;-67
2022/04/02 03:13:39;;;;;;;18.53;16.53;;;;;;;-0.91;100.00;95533.59;5072740;28;20746;-67
2022/04/02 03:16:05;;;;;;;19.50;16.13;;;;;;;-0.94;100.00;95529.59;5072324;28;20886;-68
2022/04/02 03:18:30;;;;;;;20.02;16.48;;;;;;;-0.93;100.00;95528.63;5071739;28;20917;-67
2022/04/02 03:20:55;;;;;;;19.63;16.50;;;;;;;-1.00;100.00;95524.41;5071807;28;20400;-66
2022/04/02 03:23:21;;;;;;;16.95;15.23;;;;;;;-1.03;100.00;95537.63;5072004;28;20478;-67
2022/04/02 03:25:46;;;;;;;21.23;17.00;;;;;;;-0.95;100.00;95524.66;5072481;28;20864;-66
2022/04/02 03:28:12;;;;;;;18.43;15.83;;;;;;;-0.91;100.00;95536.97;5072091;28;20478;-66
2022/04/02 03:30:38;;;;;;;19.77;15.73;;;;;;;-1.05;100.00;95534.44;5072076;28;20748;-67
2022/04/02 03:33:04;;;;;;;19.43;15.63;;;;;;;-0.99;100.00;95534.50;5072107;28;20434;-67
2022/04/02 03:35:30;;;;;;;22.63;15.57;;;;;;;-1.14;100.00;95536.38;5072051;28;20417;-66
2022/04/02 03:37:55;;;;;;;19.17;16.05;;;;;;;-1.09;100.00;95536.59;5071927;28;20848;-66
2022/04/02 03:40:23;;;;;;;23.38;15.85;;;;;;;-1.17;100.00;95541.09;5053841;28;20423;-66
2022/04/02 03:42:49;;;;;;;18.10;15.45;;;;;;;-1.17;100.00;95536.72;5070468;28;20411;-67
2022/04/02 03:45:16;;;;;;;17.77;15.45;;;;;;;-1.15;100.00;95547.63;5071617;28;20442;-68
2022/04/02 03:47:42;;;;;;;23.83;14.70;;;;;;;-1.30;100.00;95541.75;5071571;28;20734;-67
2022/04/02 03:50:08;;;;;;;19.33;14.88;;;;;;;-1.06;100.00;95553.44;5071912;28;20402;-66
2022/04/02 03:52:33;;;;;;;18.00;15.00;;;;;;;-1.26;100.00;95550.69;5071591;28;20437;-66
2022/04/02 03:54:59;;;;;;;17.73;14.27;;;;;;;-1.22;100.00;95551.09;5071550;28;20395;-65
2022/04/02 03:57:25;;;;;;;22.13;14.00;;;;;;;-1.20;100.00;95555.09;5071412;28;20441;-66
2022/04/02 03:59:50;;;;;;;19.07;14.37;;;;;;;-1.03;100.00;95556.44;5071735;28;20431;-67
2022/04/02 04:02:16;;;;;;;17.88;13.90;;;;;;;-1.00;100.00;95557.81;5070977;28;20410;-67
2022/04/02 04:04:42;;;;;;;15.60;13.02;;;;;;;-0.99;100.00;95560.22;5071496;28;20828;-66
2022/04/02 04:07:08;;;;;;;20.17;13.80;;;;;;;-1.02;100.00;95560.59;5071285;28;20469;-66
2022/04/02 04:09:34;;;;;;;17.40;13.03;;;;;;;-1.06;100.00;95558.59;5069717;28;20873;-66
2022/04/02 04:12:00;;;;;;;17.83;12.90;;;;;;;-1.06;100.00;95569.63;5071749;28;20474;-67
2022/04/02 04:14:26;;;;;;;18.83;12.30;;;;;;;-1.01;100.00;95561.41;5071386;28;20767;-67
2022/04/02 04:16:53;;;;;;;15.07;12.35;;;;;;;-1.12;100.00;95582.47;5071558;28;20406;-66
2022/04/02 04:19:19;;;;;;;17.88;13.02;;;;;;;-1.12;100.00;95572.19;5071708;28;20470;-66
2022/04/02 04:21:46;;;;;;;21.13;12.23;;;;;;;-1.31;100.00;95576.13;5070893;28;20395;-66
2022/04/02 04:24:13;;;;;;;14.20;12.00;;;;;;;-1.12;100.00;95570.41;5071011;28;20491;-66
2022/04/02 04:26:38;;;;;;;16.40;12.05;;;;;;;-1.14;100.00;95576.69;5071120;28;20419;-66
2022/04/02 04:29:04;;;;;;;14.33;12.20;;;;;;;-1.29;100.00;95582.69;5070233;28;20407;-66
2022/04/02 04:31:29;;;;;;;18.97;12.80;;;;;;;-1.22;100.00;95582.75;5052436;28;20415;-66
2022/04/02 04:33:55;;;;;;;18.50;12.57;;;;;;;-1.28;100.00;95589.41;5071394;28;20875;-66
2022/04/02 04:36:21;;;;;;;17.03;12.83;;;;;;;-1.16;100.00;95591.50;5071515;28;20388;-66
2022/04/02 04:38:48;;;;;;;19.23;13.50;;;;;;;-1.34;100.00;95591.94;5053145;28;20396;-66
2022/04/02 04:41:13;;;;;;;19.58;13.20;;;;;;;-1.40;100.00;95587.53;5071002;28;20896;-65
2022/04/02 04:43:41;;;;;;;17.65;12.95;;;;;;;-1.39;100.00;95595.03;5070967;28;20453;-66
2022/04/02 04:46:07;;;;;;;16.58;12.90;;;;;;;-1.33;100.00;95588.38;5071137;28;20383;-65
2022/04/02 04:48:35;;;;;;;17.83;13.25;;;;;;;-1.20;100.00;95595.41;5071169;28;20395;-67
2022/04/02 04:51:01;;;;;;;16.65;12.98;;;;;;;-1.29;100.00;95589.63;5047814;28;20414;-66
2022/04/02 04:53:27;;;;;;;15.82;13.88;;;;;;;-1.18;100.00;95593.47;5070987;28;20395;-66
2022/04/02 04:55:52;;;;;;;19.57;14.63;;;;;;;-1.12;100.00;95596.09;5071110;28;20452;-66
2022/04/02 04:58:18;;;;;;;19.75;14.63;;;;;;;-1.08;100.00;95602.47;5053448;28;20411;-66
2022/04/02 05:00:43;;;;;;;17.35;14.20;;;;;;;-1.07;100.00;95601.50;5070969;28;20395;-66
2022/04/02 05:03:10;;;;;;;18.07;14.60;;;;;;;-1.21;100.00;95604.09;5053292;28;20415;-66
2022/04/02 05:05:37;;;;;;;19.00;15.10;;;;;;;-1.06;100.00;95612.56;5070687;28;20474;-66
2022/04/02 05:08:03;;;;;;;15.68;13.85;;;;;;;-0.94;100.00;95614.44;5069806;28;20392;-66
2022/04/02 05:10:28;;;;;;;15.13;13.57;;;;;;;-1.01;100.00;95608.47;5069944;28;20437;-66
2022/04/02 05:12:54;;;;;;;15.52;13.82;;;;;;;-0.98;100.00;95615.81;5070292;28;20395;-66
2022/04/02 05:15:20;;;;;;;16.90;14.52;;;;;;;-1.03;100.00;95612.19;5071007;28;20407;-67
2022/04/02 05:17:46;;;;;;;16.05;14.38;;;;;;;-1.15;100.00;95613.66;5060852;28;20406;-67
2022/04/02 05:20:14;;;;;;;16.33;14.63;;;;;;;-1.30;100.00;95627.38;5074462;28;20383;-66
2022/04/02 05:22:43;;;;;;;18.48;14.65;;;;;;;-1.40;100.00;95623.50;5074365;28;20393;-66
2022/04/02 05:25:08;;;;;;;18.17;15.20;;;;;;;-1.33;100.00;95625.13;5074559;28;20852;-66
2022/04/02 05:27:34;;;;;;;16.40;14.65;;;;;;;-1.41;100.00;95621.91;5074127;28;20410;-66
2022/04/02 05:30:00;;;;;;;17.00;15.10;;;;;;;-1.40;100.00;95626.06;5074400;28;20880;-66
2022/04/02 05:32:28;;;;;;;15.77;13.87;;;;;;;-1.47;100.00;95630.31;5075701;28;20201;-66
2022/04/02 05:34:54;;;;;;;17.33;12.97;;;;;;;-1.47;100.00;95648.31;5075717;28;20181;-67
2022/04/02 05:37:20;;;;;;;14.40;12.47;;;;;;;-1.49;100.00;95645.91;5075350;28;20178;-66
2022/04/02 05:39:45;;;;;;;16.00;14.00;;;;;;;-1.52;100.00;95648.84;5075287;28;20199;-66
2022/04/02 05:42:12;;;;;;;17.13;13.57;;;;;;;-1.67;100.00;95651.41;5075552;28;20181;-66
2022/04/02 05:44:38;;;;;;;15.13;13.10;;;;;;;-1.55;100.00;95648.38;5074905;28;20261;-66
2022/04/02 05:47:04;;;;;;;15.47;13.10;;;;;;;-1.59;100.00;95645.41;5074872;28;20189;-67
2022/04/02 05:49:29;;;;;;;16.50;14.67;;;;;;;-1.56;100.00;95657.09;5075424;28;20209;-67
2022/04/02 05:51:55;;;;;;;15.90;14.20;;;;;;;-1.56;100.00;95660.44;5075162;28;20196;-67
2022/04/02 05:54:20;;;;;;;17.43;13.90;;;;;;;-1.51;100.00;95653.03;5075485;28;20243;-66
2022/04/02 05:56:45;;;;;;;15.70;13.60;;;;;;;-1.50;100.00;95659.72;5074837;28;20221;-66
2022/04/02 05:59:11;;;;;;;18.77;14.50;;;;;;;-1.40;100.00;95665.41;5074519;28;20668;-66
2022/04/02 06:01:36;;;;;;;15.70;13.53;;;;;;;-1.44;100.00;95666.72;5074768;28;20649;-67
2022/04/02 06:04:03;;;;;;;19.53;16.13;;;;;;;-1.36;100.00;95669.19;5073599;28;20197;-67
2022/04/02 06:06:29;;;;;;;15.80;13.57;;;;;;;-1.43;100.00;95659.81;5074516;28;20304;-67
2022/04/02 06:08:54;;;;;;;18.50;15.73;;;;;;;-1.34;100.00;95667.22;5054958;28;20189;-66
2022/04/02 06:11:20;;;;;;;18.17;16.23;;;;;;;-1.30;100.00;95670.25;5074221;28;20177;-66
2022/04/02 06:13:46;;;;;;;17.47;15.30;;;;;;;-1.51;100.00;95673.56;5074354;28;20526;-67
2022/04/02 06:16:11;;;;;;;17.93;15.60;;;;;;;-1.45;100.00;95670.25;5074582;28;20239;-67
2022/04/02 06:18:37;;;;;;;18.37;16.47;;;;;;;-1.32;100.00;95678.13;5074492;28;20260;-68
2022/04/02 06:21:03;;;;;;;15.63;14.13;;;;;;;-1.27;100.00;95680.97;5074578;28;20628;-67
2022/04/02 06:23:29;;;;;;;15.90;14.30;;;;;;;-1.41;100.00;95681.78;5073876;28;20204;-68
2022/04/02 06:25:55;;;;;;;18.17;15.70;;;;;;;-1.12;100.00;95693.00;5073890;28;20313;-67
2022/04/02 06:28:20;;;;;;;16.97;15.33;;;;;;;-1.41;100.00;95689.50;5074418;28;20177;-68
2022/04/02 06:30:46;;;;;;;18.37;16.30;;;;;;;-1.25;100.00;95701.34;5073161;28;20214;-68
2022/04/02 06:33:11;;;;;;;18.03;15.13;;;;;;;-1.16;100.00;95700.25;5056091;28;20525;-68
2022/04/02 06:35:37;;;;;;;16.90;15.10;;;;;;;-1.36;100.00;95696.66;5056275;28;20197;-67
2022/04/02 06:38:02;;;;;;;16.50;14.83;;;;;;;-1.41;100.00;95704.13;5074332;28;20205;-67
2022/04/02 06:40:28;;;;;;;17.47;15.23;;;;;;;-1.31;100.00;95712.34;5056392;28;20180;-68
2022/04/02 06:42:56;;;;;;;17.00;15.37;;;;;;;-1.44;100.00;95705.25;5055364;28;20189;-68
2022/04/02 06:45:21;;;;;;;15.40;13.90;;;;;;;-1.38;100.00;95708.88;5074029;28;20187;-68
2022/04/02 06:47:47;;;;;;;15.07;13.67;;;;;;;-1.36;100.00;95715.44;5056101;28;20185;-68
2022/04/02 06:50:16;;;;;;;17.23;15.43;;;;;;;-1.38;100.00;95712.25;5055189;28;20177;-67
2022/04/02 06:52:43;;;;;;;15.30;13.80;;;;;;;-1.36;100.00;95706.94;5073791;28;20189;-67
2022/04/02 06:55:11;;;;;;;13.33;12.03;;;;;;;-1.44;100.00;95718.09;5073536;28;20205;-67
2022/04/02 06:57:52;;;;;;;14.43;12.93;;;;;;;-1.49;100.00;95717.03;5073240;28;20730;-69
2022/04/02 07:00:18;;;;;;;14.80;12.80;;;;;;;-1.36;100.00;95724.94;5073429;28;20177;-67
2022/04/02 07:02:44;;;;;;;14.37;12.57;;;;;;;-1.37;100.00;95728.47;5073648;28;20208;-67
2022/04/02 07:05:09;;;;;;;13.10;11.80;;;;;;;-1.45;100.00;95731.91;5055744;28;20538;-67
2022/04/02 07:07:35;;;;;;;15.77;14.07;;;;;;;-1.29;100.00;95736.91;5071220;28;20414;-67
2022/04/02 07:10:02;;;;;;;14.73;12.37;;;;;;;-1.45;100.00;95739.63;5073664;28;20187;-70
2022/04/02 07:12:28;;;;;;;18.10;12.27;;;;;;;-1.36;100.00;95742.91;5073221;28;20539;-70
2022/04/02 07:14:53;;;;;;;13.97;11.70;;;;;;;-1.34;100.00;95749.47;5073469;28;20272;-70
2022/04/02 07:17:19;;;;;;;14.00;12.50;;;;;;;-1.25;100.00;95757.88;5055705;28;20227;-68
2022/04/02 07:19:47;;;;;;;12.80;11.47;;;;;;;-1.20;100.00;95750.44;5073962;28;20220;-67
2022/04/02 07:22:14;;;;;;;14.87;12.40;;;;;;;-1.30;100.00;95765.34;5073282;28;20192;-68
2022/04/02 07:24:40;;;;;;;13.13;11.53;;;;;;;-1.24;100.00;95756.91;5073734;28;20203;-67
2022/04/02 07:27:07;;;;;;;13.33;12.00;;;;;;;-1.45;100.00;95767.88;5073441;28;20229;-68
2022/04/02 07:29:34;;;;;;;13.30;12.00;;;;;;;-1.24;100.00;95779.25;5073170;28;20197;-69
2022/04/02 07:32:00;;;;;;;12.50;11.20;;;;;;;-1.34;100.00;95780.28;5055626;28;20189;-68
2022/04/02 07:34:25;;;;;;;12.93;11.53;;;;;;;-1.27;100.00;95780.38;5073833;28;20185;-68
2022/04/02 07:37:10;;;;;;;14.50;13.00;;;;;;;-1.21;100.00;95794.31;5055263;28;20314;-68
2022/04/02 07:39:59;;;;;;;13.67;12.23;;;;;;;-1.37;100.00;95788.38;5072826;28;20234;-68
2022/04/02 07:42:33;;;;;;;14.13;12.63;;;;;;;-1.00;100.00;95796.94;5055273;28;20534;-70
2022/04/02 07:45:11;;;;;;;12.43;11.13;;;;;;;-0.95;100.00;95797.22;5053671;28;20201;-68
2022/04/02 07:47:48;;;;;;;13.37;11.97;;;;;;;-0.94;100.00;95801.38;5072154;28;20192;-68
2022/04/02 07:50:15;;;;;;;12.70;11.40;;;;;;;-0.81;100.00;95798.97;5054462;28;20259;-69
2022/04/02 07:52:46;;;;;;;13.07;11.40;;;;;;;-0.83;100.00;95811.19;5071696;28;20603;-70
2022/04/02 07:55:12;;;;;;;13.30;11.90;;;;;;;-0.90;100.00;95798.28;5071862;28;20193;-70
2022/04/02 07:57:44;;;;;;;13.50;12.03;;;;;;;-1.03;100.00;95805.81;5073069;28;20181;-69
2022/04/02 08:00:12;;;;;;;11.80;10.37;;;;;;;-1.18;100.00;95809.38;5053487;28;20188;-68
2022/04/02 08:02:42;;;;;;;13.43;11.20;;;;;;;-1.34;100.00;95815.50;5073150;28;20182;-68
2022/04/02 08:05:14;;;;;;;12.70;10.97;;;;;;;-1.07;100.00;95821.78;5073781;28;20630;-72
2022/04/02 08:07:50;;;;;;;12.93;10.90;;;;;;;-1.01;100.00;95831.38;5054247;28;20517;-69
2022/04/02 08:10:17;;;;;;;11.70;10.20;;;;;;;-1.25;100.00;95827.28;5054785;28;20188;-70
2022/04/02 08:12:43;;;;;;;11.53;10.13;;;;;;;-1.29;100.00;95833.75;5072228;28;20180;-69
2022/04/02 08:15:16;;;;;;;10.43;9.43;;;;;;;-1.29;100.00;95841.47;5073835;28;20552;-69
2022/04/02 08:17:44;;;;;;;13.50;11.40;;;;;;;-1.18;100.00;95843.59;5072225;28;20514;-69
2022/04/02 08:20:10;;;;;;;12.37;10.87;;;;;;;-0.98;100.00;95847.22;5072092;28;20177;-69
2022/04/02 08:22:36;;;;;;;12.90;11.70;;;;;;;-1.15;100.00;95845.00;5070940;28;20833;-69
2022/04/02 08:25:03;;;;;;;11.77;10.60;;;;;;;-1.08;100.00;95853.63;5071643;28;20262;-69
2022/04/02 08:27:33;;;;;;;11.33;10.13;;;;;;;-1.05;100.00;95837.81;5071481;28;20563;-69
2022/04/02 08:30:05;;;;;;;12.33;11.03;;;;;;;-1.11;100.00;95857.31;5071942;28;20661;-69
2022/04/02 08:33:07;;;;;;;11.10;9.97;;;;;;;-1.19;100.00;95859.19;5071984;28;20181;-71
2022/04/02 08:35:41;;;;;;;10.73;8.57;;;;;;;-1.22;100.00;95862.09;5066877;28;20542;-70
2022/04/02 08:38:27;;;;;;;12.40;10.73;;;;;;;-1.19;100.00;95872.03;5071850;28;20226;-70
2022/04/02 08:41:30;;;;;;;11.70;9.97;;;;;;;-1.21;100.00;95869.63;5054526;28;20181;-69
2022/04/02 08:44:07;;;;;;;15.80;9.93;;;;;;;-1.37;100.00;95873.19;5071975;28;20211;-68
2022/04/02 08:46:38;;;;;;;11.23;10.13;;;;;;;-1.14;100.00;95874.88;5072699;28;20250;-68
2022/04/02 08:49:29;;;;;;;11.17;9.80;;;;;;;-1.02;100.00;95878.63;5072566;28;20189;-68
2022/04/02 08:52:14;;;;;;;12.80;10.57;;;;;;;-0.85;100.00;95885.19;5072049;28;20238;-68
2022/04/02 08:54:53;;;;;;;12.90;10.30;;;;;;;-1.06;100.00;95888.44;5067754;28;20181;-68
2022/04/02 08:57:52;;;;;;;12.43;11.07;;;;;;;-1.00;100.00;95898.03;5076420;28;20189;-67
2022/04/02 09:00:28;;;;;;;11.47;9.67;;;;;;;-1.07;100.00;95902.28;5057967;28;20276;-67
2022/04/02 09:02:53;;;;;;;12.27;10.63;;;;;;;-1.19;100.00;95906.25;5075619;28;20241;-67
2022/04/02 09:05:40;;;;;;;11.33;10.13;;;;;;;-1.23;100.00;95914.50;5075577;28;20665;-67
2022/04/02 09:08:33;;;;;;;11.33;10.03;;;;;;;-1.29;100.00;95921.94;5073758;28;20209;-68
2022/04/02 09:11:23;;;;;;;11.37;10.13;;;;;;;-1.27;100.00;95917.41;5076082;28;20253;-66
2022/04/02 09:13:51;;;;;;;14.57;10.47;;;;;;;-1.21;100.00;95925.38;5075370;28;20188;-67
2022/04/02 09:16:27;;;;;;;13.63;10.70;;;;;;;-1.26;100.00;95925.91;5075750;28;20216;-67
2022/04/02 09:19:07;;;;;;;10.67;9.57;;;;;;;-1.44;100.00;95928.78;5075480;28;20218;-67
2022/04/02 09:21:51;;;;;;;11.47;10.27;;;;;;;-1.26;100.00;95929.28;5075834;28;20189;-67
2022/04/02 09:24:47;;;;;;;12.07;10.67;;;;;;;-1.09;100.00;95935.09;5078652;28;20260;-67
2022/04/02 09:27:36;;;;;;;11.47;9.37;;;;;;;-1.23;100.00;95943.56;5075705;28;20256;-67
2022/04/02 09:30:04;;;;;;;13.13;11.40;;;;;;;-1.08;100.00;95943.59;5075613;28;20572;-67
2022/04/02 09:32:47;;;;;;;14.97;10.37;;;;;;;-0.88;100.00;95942.09;5075387;28;20551;-67
2022/04/02 09:35:36;;;;;;;14.13;11.70;;;;;;;-0.93;100.00;95945.22;5074810;28;20659;-67
2022/04/02 09:38:32;;;;;;;14.33;11.23;;;;;;;-1.15;100.00;95948.63;5074702;28;20216;-66
2022/04/02 09:41:36;;;;;;;16.10;11.50;;;;;;;-1.27;100.00;95962.88;5074804;28;20173;-66
2022/04/02 09:44:27;;;;;;;14.70;11.27;;;;;;;-1.53;100.00;95965.81;5074550;28;20280;-66
2022/04/02 09:47:35;;;;;;;15.67;11.27;;;;;;;-1.42;100.00;95978.25;5074861;28;20185;-66
2022/04/02 09:50:08;;;;;;;13.93;11.30;;;;;;;-1.08;100.00;95967.53;5074390;28;20202;-66
2022/04/02 09:52:37;;;;;;;14.77;12.20;;;;;;;-1.13;100.00;95964.69;5075204;28;20186;-65
2022/04/02 09:55:13;;;;;;;16.37;12.97;;;;;;;-0.99;100.00;95960.53;5074562;28;20224;-66
2022/04/02 09:57:44;;;;;;;14.43;12.67;;;;;;;-1.15;100.00;95969.19;5056666;28;20211;-66
2022/04/02 10:00:11;;;;;;;15.67;12.33;;;;;;;-1.11;100.00;95970.44;5075017;28;20579;-66
2022/04/02 10:03:01;;;;;;;16.10;13.03;;;;;;;-1.05;100.00;95974.09;5074598;28;20268;-67
2022/04/02 10:06:03;;;;;;;14.83;11.80;;;;;;;-1.12;100.00;95984.28;5073225;28;20182;-66
2022/04/02 10:09:03;;;;;;;14.77;11.67;;;;;;;-1.16;100.00;95974.50;5038760;28;20190;-67
2022/04/02 10:11:30;;;;;;;13.27;11.63;;;;;;;-1.27;100.00;95979.09;5072278;28;20204;-66
2022/04/02 10:14:00;;;;;;;19.93;13.17;;;;;;;-1.33;100.00;95986.69;5074084;28;20621;-67
2022/04/02 10:16:27;;;;;;;14.70;10.60;;;;;;;-1.31;100.00;95984.75;5074608;28;20195;-66
2022/04/02 10:18:54;;;;;;;13.73;11.43;;;;;;;-1.44;100.00;95989.66;5074387;28;20544;-66
2022/04/02 10:21:21;;;;;;;13.73;11.73;;;;;;;-1.22;100.00;95983.72;5074367;28;20185;-67
2022/04/02 10:24:11;;;;;;;13.63;11.10;;;;;;;-1.28;100.00;95992.09;5074561;28;20204;-66
2022/04/02 10:26:39;;;;;;;14.40;11.70;;;;;;;-1.29;100.00;95983.63;5073615;28;20275;-66
2022/04/02 10:29:12;;;;;;;15.13;11.70;;;;;;;-1.23;100.00;95994.19;5073220;28;20263;-66
2022/04/02 10:31:58;;;;;;;16.70;10.80;;;;;;;-1.17;100.00;95996.84;5053558;28;20723;-67
2022/04/02 10:34:38;;;;;;;15.00;11.40;;;;;;;-0.86;100.00;96002.69;5060000;28;20238;-67
2022/04/02 10:37:15;;;;;;;16.10;11.80;;;;;;;-0.90;100.00;96000.66;5073882;28;20185;-67
2022/04/02 10:39:53;;;;;;;13.57;11.03;;;;;;;-1.02;100.00;95997.69;5071722;28;20185;-68
2022/04/02 10:42:19;;;;;;;13.37;10.60;;;;;;;-0.86;100.00;96007.84;5058454;28;20222;-67
2022/04/02 10:44:58;;;;;;;15.50;10.87;;;;;;;-1.12;100.00;96012.56;5054829;28;20244;-67
2022/04/02 10:47:28;;;;;;;13.40;11.00;;;;;;;-0.95;100.00;96005.53;5056145;28;20189;-67
2022/04/02 10:50:01;;;;;;;13.17;11.53;;;;;;;-0.96;100.00;96003.91;5073591;28;20267;-66
2022/04/02 10:52:28;;;;;;;18.67;10.60;;;;;;;-0.89;100.00;96003.03;5072400;28;20170;-66
2022/04/02 10:54:54;;;;;;;14.53;11.17;;;;;;;-1.03;100.00;96003.00;5073767;28;20323;-65
2022/04/02 10:57:19;;;;;;;12.50;11.30;;;;;;;-0.79;100.00;96007.94;5073098;28;20256;-66
2022/04/02 10:59:49;;;;;;;12.03;10.77;;;;;;;-0.61;100.00;96010.97;5072848;28;20265;-66
2022/04/02 11:02:22;;;;;;;12.00;10.70;;;;;;;-0.69;100.00;96012.81;5072988;28;20185;-66
2022/04/02 11:05:05;;;;;;;14.77;11.00;;;;;;;-0.65;100.00;96020.00;5073261;28;20201;-66
2022/04/02 11:07:37;;;;;;;11.23;10.13;;;;;;;-0.75;100.00;96024.63;5073269;28;20204;-66
2022/04/02 11:10:04;;;;;;;15.57;10.23;;;;;;;-0.89;100.00;96026.16;5071349;28;20269;-67
2022/04/02 11:12:38;;;;;;;12.37;11.07;;;;;;;-1.00;100.00;96016.31;5072660;28;20611;-67
2022/04/02 11:15:07;;;;;;;15.00;11.83;;;;;;;-0.96;100.00;96024.50;5044574;28;20232;-66
2022/04/02 11:17:46;;;;;;;13.03;10.50;;;;;;;-1.14;100.00;96031.69;5073228;28;20602;-66
2022/04/02 11:20:17;;;;;;;14.57;10.83;;;;;;;-1.08;100.00;96031.00;5073079;28;20264;-68
2022/04/02 11:22:51;;;;;;;14.60;11.13;;;;;;;-1.03;100.00;96033.84;5073217;28;20646;-67